createdAt,value
2018-07-16T00:01:22.991Z,99.90
2018-07-16T00:04:03.625Z,99.90
2018-07-16T00:06:44.663Z,99.90
2018-07-16T00:09:25.933Z,99.90
2018-07-16T00:12:07.069Z,99.90
2018-07-16T00:14:48.447Z,99.90
2018-07-16T00:17:29.821Z,99.90
2018-07-16T00:20:11.175Z,99.90
2018-07-16T00:22:51.890Z,99.90
2018-07-16T00:25:33.251Z,99.90
2018-07-16T00:28:14.739Z,99.90
2018-07-16T00:30:55.774Z,99.90
2018-07-16T00:36:17.743Z,99.90
2018-07-16T00:38:58.478Z,99.90
2018-07-16T00:41:39.538Z,99.90
2018-07-16T00:44:20.320Z,99.90
2018-07-16T00:47:01.628Z,99.90
2018-07-16T00:49:42.640Z,99.90
2018-07-16T00:52:23.779Z,99.90
2018-07-16T00:55:04.510Z,99.90
2018-07-16T00:57:45.867Z,99.90
2018-07-16T01:00:26.851Z,99.90
2018-07-16T01:03:08.059Z,99.90
2018-07-16T01:05:49.152Z,99.90
2018-07-16T01:08:30.240Z,99.90
2018-07-16T01:11:11.196Z,99.90
2018-07-16T01:13:52.373Z,99.90
2018-07-16T01:16:33.267Z,99.90
2018-07-16T01:19:14.681Z,99.90
2018-07-16T01:21:55.917Z,99.90
2018-07-16T01:24:37.261Z,99.90
2018-07-16T01:27:18.047Z,99.90
2018-07-16T01:29:59.255Z,99.90
2018-07-16T01:32:40.289Z,99.90
2018-07-16T01:35:21.723Z,99.90
2018-07-16T01:38:03.328Z,99.90
2018-07-16T01:40:43.912Z,99.90
2018-07-16T01:43:25.064Z,99.90
2018-07-16T01:46:06.019Z,99.90
2018-07-16T01:48:46.761Z,99.90
2018-07-16T01:51:27.710Z,99.90
2018-07-16T01:54:08.811Z,99.90
2018-07-16T01:56:50.024Z,99.90
2018-07-16T01:59:30.985Z,99.90
2018-07-16T02:02:12.043Z,99.90
2018-07-16T02:04:53.317Z,99.90
2018-07-16T02:07:34.330Z,99.90
2018-07-16T02:10:15.620Z,99.90
2018-07-16T02:12:56.532Z,99.90
2018-07-16T02:15:37.820Z,99.90
2018-07-16T02:18:18.576Z,99.90
2018-07-16T02:20:59.219Z,99.90
2018-07-16T02:23:40.588Z,99.90
2018-07-16T02:26:21.967Z,99.90
2018-07-16T02:29:02.780Z,99.90
2018-07-16T02:34:25.180Z,99.90
2018-07-16T02:37:06.017Z,99.90
2018-07-16T02:39:47.301Z,99.90
2018-07-16T02:42:27.872Z,99.90
2018-07-16T02:45:09.090Z,99.90
2018-07-16T02:47:50.415Z,99.90
2018-07-16T02:50:31.908Z,99.90
2018-07-16T02:53:13.148Z,99.90
2018-07-16T02:55:53.909Z,99.90
2018-07-16T02:58:34.401Z,99.90
2018-07-16T03:01:15.555Z,99.90
2018-07-16T03:03:56.642Z,99.90
2018-07-16T03:06:37.425Z,99.90
2018-07-16T03:09:18.328Z,99.90
2018-07-16T03:11:59.238Z,99.90
2018-07-16T03:14:40.263Z,99.90
2018-07-16T03:17:21.324Z,99.90
2018-07-16T03:20:02.626Z,99.90
2018-07-16T03:22:43.486Z,99.90
2018-07-16T03:25:24.664Z,99.90
2018-07-16T03:28:05.548Z,99.90
2018-07-16T03:30:46.696Z,99.90
2018-07-16T03:33:28.039Z,99.90
2018-07-16T03:36:08.637Z,99.90
2018-07-16T03:38:49.828Z,99.90
2018-07-16T03:41:30.518Z,99.90
2018-07-16T03:44:11.298Z,99.90
2018-07-16T03:46:52.116Z,99.90
2018-07-16T03:49:33.259Z,99.90
2018-07-16T03:52:14.193Z,99.90
2018-07-16T03:54:55.464Z,99.90
2018-07-16T03:57:36.401Z,99.90
2018-07-16T04:00:17.751Z,99.90
2018-07-16T04:02:58.300Z,99.90
2018-07-16T04:05:39.544Z,99.90
2018-07-16T04:08:20.315Z,99.90
2018-07-16T04:11:01.325Z,99.90
2018-07-16T04:13:42.308Z,99.90
2018-07-16T04:16:23.260Z,99.90
2018-07-16T04:19:04.084Z,99.90
2018-07-16T04:21:45.530Z,99.90
2018-07-16T04:24:26.347Z,99.90
2018-07-16T04:27:07.623Z,99.90
2018-07-16T04:29:49.166Z,99.90
2018-07-16T04:32:30.267Z,99.90
2018-07-16T04:35:11.070Z,99.90
2018-07-16T04:37:51.957Z,99.90
2018-07-16T04:40:32.744Z,99.90
2018-07-16T04:43:14.091Z,99.90
2018-07-16T04:45:55.247Z,99.90
2018-07-16T04:48:35.903Z,99.90
2018-07-16T04:51:17.016Z,99.90
2018-07-16T04:53:58.095Z,99.90
2018-07-16T04:56:39.346Z,99.90
2018-07-16T04:59:20.883Z,99.90
2018-07-16T05:02:01.543Z,99.90
2018-07-16T05:04:42.703Z,99.90
2018-07-16T05:07:23.956Z,99.90
2018-07-16T05:10:05.539Z,99.90
2018-07-16T05:12:46.429Z,99.90
2018-07-16T05:15:27.643Z,99.90
2018-07-16T05:18:08.724Z,99.90
2018-07-16T05:20:49.455Z,99.90
2018-07-16T05:23:30.096Z,99.90
2018-07-16T05:26:11.310Z,99.90
2018-07-16T05:28:52.016Z,99.90
2018-07-16T05:31:33.493Z,99.90
2018-07-16T05:34:14.489Z,99.90
2018-07-16T05:37:02.096Z,99.90
2018-07-16T05:39:42.767Z,99.90
2018-07-16T05:42:24.205Z,99.90
2018-07-16T05:45:05.655Z,99.90
2018-07-16T05:47:46.830Z,99.90
2018-07-16T05:50:28.061Z,99.90
2018-07-16T05:53:08.969Z,99.90
2018-07-16T05:55:50.224Z,99.90
2018-07-16T05:58:31.113Z,99.90
2018-07-16T06:01:12.239Z,99.90
2018-07-16T06:03:52.875Z,99.90
2018-07-16T06:06:33.783Z,99.90
2018-07-16T06:09:14.929Z,99.90
2018-07-16T06:11:56.170Z,99.90
2018-07-16T06:14:37.601Z,99.90
2018-07-16T06:17:18.589Z,99.90
2018-07-16T06:19:59.100Z,99.90
2018-07-16T06:25:22.051Z,99.90
2018-07-16T06:28:02.875Z,99.90
2018-07-16T06:30:44.213Z,99.90
2018-07-16T06:33:24.908Z,99.90
2018-07-16T06:36:06.244Z,99.90
2018-07-16T06:38:47.080Z,99.90
2018-07-16T06:41:28.098Z,99.90
2018-07-16T06:44:08.633Z,99.90
2018-07-16T06:46:49.831Z,99.90
2018-07-16T06:49:31.035Z,99.90
2018-07-16T06:52:12.008Z,99.90
2018-07-16T06:54:53.228Z,99.90
2018-07-16T06:57:34.307Z,99.90
2018-07-16T07:00:14.883Z,99.90
2018-07-16T12:23:14.143Z,51.20
2018-07-16T12:25:55.266Z,52.60
2018-07-16T12:28:35.900Z,50.90
2018-07-16T12:31:16.696Z,52.30
2018-07-16T12:33:57.485Z,51.90
2018-07-16T12:36:38.353Z,53.00
2018-07-16T12:39:19.092Z,53.90
2018-07-16T12:41:59.833Z,53.30
2018-07-16T12:44:40.374Z,53.40
2018-07-16T12:47:21.288Z,56.20
2018-07-16T12:50:01.945Z,56.90
2018-07-16T12:52:42.636Z,55.80
2018-07-16T12:55:23.259Z,56.30
2018-07-16T13:00:46.050Z,57.50
2018-07-16T13:03:27.069Z,55.70
2018-07-16T13:06:07.936Z,57.20
2018-07-16T13:08:48.677Z,57.50
2018-07-16T13:11:29.637Z,56.20
2018-07-16T13:14:10.541Z,57.10
2018-07-16T13:16:51.179Z,56.50
2018-07-16T13:19:31.961Z,55.20
2018-07-16T13:22:12.830Z,54.90
2018-07-16T13:24:53.761Z,55.70
2018-07-16T13:27:34.647Z,54.90
2018-07-16T13:30:15.569Z,54.80
2018-07-16T13:32:56.264Z,54.00
2018-07-16T13:35:37.057Z,53.90
2018-07-16T13:38:17.585Z,55.10
2018-07-16T13:40:58.189Z,57.00
2018-07-16T13:43:38.765Z,58.30
2018-07-16T13:46:19.668Z,56.20
2018-07-16T13:49:00.293Z,54.50
2018-07-16T13:54:22.785Z,54.10
2018-07-16T13:57:03.584Z,55.10
2018-07-16T13:59:44.124Z,55.10
2018-07-16T14:02:24.893Z,54.60
2018-07-16T14:05:05.539Z,53.10
2018-07-16T14:07:46.392Z,54.30
2018-07-16T14:10:27.150Z,53.40
2018-07-16T14:13:08.209Z,53.50
2018-07-16T14:15:48.720Z,54.30
2018-07-16T14:18:29.919Z,53.60
2018-07-16T14:21:11.293Z,53.30
2018-07-16T14:23:52.185Z,52.50
2018-07-16T14:26:32.989Z,52.90
2018-07-16T14:29:13.844Z,53.00
2018-07-16T14:31:54.577Z,53.70
2018-07-16T14:34:35.204Z,53.10
2018-07-16T14:37:15.796Z,52.50
2018-07-16T14:39:56.465Z,53.00
2018-07-16T14:42:37.264Z,53.50
2018-07-16T14:45:18.811Z,53.50
2018-07-16T14:47:59.625Z,54.20
2018-07-16T14:50:40.641Z,55.70
2018-07-16T14:53:21.224Z,56.20
2018-07-16T14:56:01.852Z,56.30
2018-07-16T14:58:42.449Z,57.40
2018-07-16T15:01:23.154Z,58.10
2018-07-16T15:04:04.040Z,58.80
2018-07-16T15:06:45.437Z,58.30
2018-07-16T15:09:26.154Z,58.30
2018-07-16T15:12:07.251Z,59.10
2018-07-16T15:14:48.117Z,59.70
2018-07-16T15:17:28.878Z,62.00
2018-07-16T15:20:10.100Z,62.40
2018-07-16T15:22:50.761Z,63.20
2018-07-16T15:25:31.886Z,63.50
2018-07-16T15:28:12.492Z,64.40
2018-07-16T15:30:53.479Z,64.90
2018-07-16T15:33:34.460Z,64.40
2018-07-16T15:36:15.284Z,64.10
2018-07-16T15:38:56.010Z,64.00
2018-07-16T15:41:37.359Z,64.00
2018-07-16T15:44:18.785Z,62.80
2018-07-16T15:46:59.922Z,63.80
2018-07-16T15:52:22.527Z,61.60
2018-07-16T15:55:03.725Z,61.40
2018-07-16T15:57:44.393Z,62.20
2018-07-16T16:00:25.196Z,62.00
2018-07-16T16:03:06.257Z,62.00
2018-07-16T16:05:47.288Z,62.20
2018-07-16T16:08:28.311Z,62.20
2018-07-16T16:11:09.852Z,62.60
2018-07-16T16:13:51.247Z,63.50
2018-07-16T16:16:32.507Z,63.80
2018-07-16T16:19:13.378Z,64.10
2018-07-16T16:21:54.702Z,64.40
2018-07-16T16:24:35.743Z,64.90
2018-07-16T16:27:16.778Z,65.20
2018-07-16T16:32:39.231Z,66.00
2018-07-16T16:35:20.112Z,66.80
2018-07-16T16:38:01.798Z,67.30
2018-07-16T16:40:42.379Z,67.50
2018-07-16T16:43:23.553Z,68.40
2018-07-16T16:46:04.677Z,69.20
2018-07-16T16:48:45.576Z,70.40
2018-07-16T16:51:27.118Z,70.50
2018-07-16T16:54:07.746Z,70.50
2018-07-16T16:56:48.696Z,71.00
2018-07-16T16:59:29.605Z,71.30
2018-07-16T17:02:10.763Z,71.90
2018-07-16T17:04:51.972Z,72.50
2018-07-16T17:07:33.038Z,73.10
2018-07-16T17:10:14.404Z,72.70
2018-07-16T17:12:55.074Z,72.30
2018-07-16T17:15:36.028Z,72.20
2018-07-16T17:18:16.964Z,73.10
2018-07-16T17:20:58.233Z,73.20
2018-07-16T17:23:39.823Z,73.00
2018-07-16T17:26:20.688Z,73.00
2018-07-16T17:29:01.771Z,72.90
2018-07-16T17:31:43.008Z,73.70
2018-07-16T17:34:23.951Z,74.30
2018-07-16T17:37:05.273Z,75.00
2018-07-16T17:39:46.721Z,76.10
2018-07-16T17:42:27.552Z,76.40
2018-07-16T17:45:08.953Z,76.60
2018-07-16T17:47:50.242Z,77.10
2018-07-16T17:50:30.857Z,77.40
2018-07-16T17:53:11.733Z,78.40
2018-07-16T17:55:52.972Z,79.60
2018-07-16T17:58:34.073Z,80.20
2018-07-16T18:01:14.903Z,81.80
2018-07-16T18:03:55.978Z,83.80
2018-07-16T18:06:36.887Z,84.40
2018-07-16T18:09:17.359Z,85.10
2018-07-16T18:11:58.428Z,85.50
2018-07-16T18:14:39.605Z,86.10
2018-07-16T18:17:20.760Z,86.70
2018-07-16T18:20:01.996Z,87.40
2018-07-16T18:22:43.096Z,87.80
2018-07-16T18:25:24.399Z,88.50
2018-07-16T18:28:05.677Z,89.10
2018-07-16T18:30:47.151Z,89.50
2018-07-16T18:33:28.278Z,90.10
2018-07-16T18:36:09.537Z,90.50
2018-07-16T18:38:50.675Z,90.90
2018-07-16T18:41:31.639Z,91.90
2018-07-16T18:44:12.960Z,92.50
2018-07-16T18:49:34.975Z,93.90
2018-07-16T18:52:15.991Z,94.20
2018-07-16T18:54:57.227Z,94.70
2018-07-16T18:57:38.200Z,94.90
2018-07-16T19:00:18.887Z,95.20
2018-07-16T19:03:00.030Z,95.60
2018-07-16T19:05:40.822Z,95.40
2018-07-16T19:08:21.818Z,95.50
2018-07-16T19:11:02.958Z,95.60
2018-07-16T19:13:43.952Z,95.70
2018-07-16T19:16:25.343Z,95.70
2018-07-16T19:19:06.692Z,95.90
2018-07-16T19:21:47.655Z,96.20
2018-07-16T19:24:28.926Z,96.40
2018-07-16T19:27:10.223Z,96.60
2018-07-16T19:29:51.243Z,96.80
2018-07-16T19:32:32.693Z,96.70
2018-07-16T19:35:13.624Z,96.80
2018-07-16T19:37:55.168Z,96.50
2018-07-16T19:40:36.212Z,96.40
2018-07-16T19:43:16.987Z,96.20
2018-07-16T19:45:58.067Z,95.90
2018-07-16T19:48:39.377Z,95.90
2018-07-16T19:51:20.397Z,96.00
2018-07-16T19:54:01.289Z,96.10
2018-07-16T19:56:42.716Z,96.30
2018-07-16T19:59:23.821Z,96.30
2018-07-16T20:02:04.612Z,96.20
2018-07-16T20:04:45.568Z,95.80
2018-07-16T20:07:26.533Z,95.70
2018-07-16T20:10:07.724Z,95.70
2018-07-16T20:12:48.371Z,95.70
2018-07-16T20:15:29.394Z,95.40
2018-07-16T20:18:10.490Z,95.40
2018-07-16T20:20:53.229Z,95.40
2018-07-16T20:23:34.516Z,95.40
2018-07-16T20:26:15.659Z,95.50
2018-07-16T20:28:57.165Z,95.40
2018-07-16T20:31:38.277Z,95.50
2018-07-16T20:34:18.813Z,95.50
2018-07-16T20:36:59.731Z,95.50
2018-07-16T20:39:40.698Z,95.30
2018-07-16T20:42:21.623Z,95.20
2018-07-16T20:45:02.848Z,95.10
2018-07-16T20:47:43.902Z,95.10
2018-07-16T20:50:25.107Z,95.10
2018-07-16T20:53:05.733Z,95.80
2018-07-16T20:55:46.666Z,95.80
2018-07-16T20:58:27.284Z,95.60
2018-07-16T21:01:08.986Z,95.70
2018-07-16T21:03:50.396Z,95.70
2018-07-16T21:06:31.255Z,95.70
2018-07-16T21:09:12.617Z,95.70
2018-07-16T21:11:53.873Z,94.00
2018-07-16T21:14:35.259Z,91.50
2018-07-16T21:17:16.385Z,91.20
2018-07-16T21:19:57.332Z,90.90
2018-07-16T21:22:38.327Z,90.90
2018-07-16T21:25:19.535Z,91.70
2018-07-16T21:28:00.454Z,93.00
2018-07-16T21:30:41.359Z,94.80
2018-07-16T21:33:22.487Z,96.20
2018-07-16T21:36:03.613Z,96.10
2018-07-16T21:38:44.734Z,96.20
2018-07-16T21:41:25.652Z,96.30
2018-07-16T21:44:06.965Z,96.40
2018-07-16T21:46:48.254Z,96.40
2018-07-16T21:49:29.155Z,96.50
2018-07-16T21:52:10.020Z,96.20
2018-07-16T21:54:51.042Z,96.30
2018-07-16T21:57:31.983Z,95.80
2018-07-16T22:00:12.473Z,95.70
2018-07-16T22:02:53.709Z,95.80
2018-07-16T22:05:34.601Z,95.60
2018-07-16T22:08:15.706Z,95.70
2018-07-16T22:10:56.924Z,95.20
2018-07-16T22:13:38.426Z,95.10
2018-07-16T22:16:19.499Z,94.80
2018-07-16T22:19:00.412Z,94.70
2018-07-16T22:21:41.317Z,94.70
2018-07-16T22:24:22.158Z,94.70
2018-07-16T22:27:03.104Z,94.70
2018-07-16T22:29:44.639Z,94.80
2018-07-16T22:32:25.877Z,95.40
2018-07-16T22:35:06.904Z,96.40
2018-07-16T22:37:47.924Z,96.50
2018-07-16T22:40:29.075Z,96.60
2018-07-16T22:43:09.888Z,97.00
2018-07-16T22:45:50.607Z,97.00
2018-07-16T22:48:31.615Z,97.00
2018-07-16T22:51:12.551Z,96.70
2018-07-16T22:53:53.531Z,96.20
2018-07-16T22:56:34.686Z,95.20
2018-07-16T22:59:15.762Z,96.50
2018-07-16T23:01:57.024Z,97.20
2018-07-16T23:04:38.594Z,98.10
2018-07-16T23:07:19.965Z,99.10
2018-07-16T23:10:00.684Z,99.70
2018-07-16T23:12:41.348Z,99.90
2018-07-16T23:15:22.263Z,99.90
2018-07-16T23:18:03.363Z,99.90
2018-07-16T23:20:44.069Z,99.90
2018-07-16T23:23:24.944Z,99.90
2018-07-16T23:26:06.022Z,99.90
2018-07-16T23:28:47.477Z,99.90
2018-07-16T23:31:28.596Z,99.90
2018-07-16T23:34:09.350Z,99.90
2018-07-16T23:36:50.187Z,99.90
2018-07-16T23:39:31.206Z,99.90
2018-07-16T23:42:11.975Z,99.90
2018-07-16T23:44:53.117Z,99.90
2018-07-16T23:47:34.044Z,99.90
2018-07-16T23:50:15.301Z,99.90
2018-07-16T23:52:56.222Z,99.90
2018-07-16T23:55:37.138Z,99.90
2018-07-16T23:58:17.965Z,99.90
